CEB112 RPLL-WSSS
Flight info
| Callsign | CEB112 |
|---|---|
| Flight time | N/A |
| Altitude | 34000 |
| Route | BUCAL2R BUCAL M646 TOKON/N0451F350 M767 TODAM/N0450F360 M767 TOMAN KARTO2B |
| Aircraft | A20N/M-SDE2E3FGHIRWXY/LB1 |
Departure
| Time | 2026-05-07 03:34 |
|---|---|
| Airport | Ninoy Aquino International Airport (RPLL) |
Arrival
| Time | N/A |
|---|---|
| Airport | Singapore Changi Airport (WSSS) |
| Time | Latitude | Longitude | Altitude | Speed | Heading |
|---|---|---|---|---|---|
| 2026-05-07 03:05 | 14.50506 | 121.00710 | 46 ft | 0 kts | 279° |
| 2026-05-07 03:18 | 14.50506 | 121.00712 | 73 ft | 3 kts | 279° |
| 2026-05-07 03:18 | 14.50503 | 121.00731 | 46 ft | 3 kts | 279° |
| 2026-05-07 03:18 | 14.50501 | 121.00746 | 44 ft | 3 kts | 279° |
| 2026-05-07 03:18 | 14.50504 | 121.00763 | 44 ft | 3 kts | 210° |
| 2026-05-07 03:19 | 14.50521 | 121.00768 | 42 ft | 2 kts | 220° |
| 2026-05-07 03:19 | 14.50533 | 121.00780 | 44 ft | 2 kts | 228° |
| 2026-05-07 03:19 | 14.50545 | 121.00792 | 44 ft | 3 kts | 207° |
| 2026-05-07 03:19 | 14.50560 | 121.00800 | 41 ft | 3 kts | 173° |
| 2026-05-07 03:20 | 14.50567 | 121.00799 | 43 ft | 0 kts | 146° |
| 2026-05-07 03:20 | 14.50565 | 121.00800 | 43 ft | 0 kts | 153° |
| 2026-05-07 03:20 | 14.50559 | 121.00800 | 41 ft | 2 kts | 168° |
| 2026-05-07 03:20 | 14.50555 | 121.00802 | 41 ft | 0 kts | 152° |
| 2026-05-07 03:22 | 14.50552 | 121.00803 | 46 ft | 3 kts | 163° |
| 2026-05-07 03:22 | 14.50541 | 121.00808 | 43 ft | 0 kts | 150° |
| 2026-05-07 03:24 | 14.50529 | 121.00815 | 45 ft | 6 kts | 153° |
| 2026-05-07 03:24 | 14.50477 | 121.00830 | 46 ft | 9 kts | 186° |
| 2026-05-07 03:25 | 14.50405 | 121.00812 | 45 ft | 13 kts | 195° |
| 2026-05-07 03:25 | 14.50360 | 121.00764 | 43 ft | 9 kts | 241° |
| 2026-05-07 03:25 | 14.50312 | 121.00674 | 42 ft | 20 kts | 240° |
| 2026-05-07 03:25 | 14.50232 | 121.00534 | 42 ft | 25 kts | 239° |
| 2026-05-07 03:26 | 14.50188 | 121.00458 | 41 ft | 12 kts | 240° |
| 2026-05-07 03:26 | 14.50142 | 121.00375 | 41 ft | 15 kts | 240° |
| 2026-05-07 03:26 | 14.50088 | 121.00278 | 40 ft | 17 kts | 240° |
| 2026-05-07 03:26 | 14.50023 | 121.00162 | 39 ft | 20 kts | 240° |
| 2026-05-07 03:27 | 14.49960 | 121.00049 | 39 ft | 11 kts | 240° |
| 2026-05-07 03:27 | 14.49933 | 121.00000 | 39 ft | 1 kts | 239° |
| 2026-05-07 03:27 | 14.49922 | 120.99984 | 38 ft | 6 kts | 232° |
| 2026-05-07 03:27 | 14.49875 | 120.99967 | 35 ft | 7 kts | 160° |
| 2026-05-07 03:28 | 14.49872 | 120.99969 | 36 ft | 0 kts | 151° |
| 2026-05-07 03:28 | 14.49868 | 120.99971 | 37 ft | 0 kts | 151° |
| 2026-05-07 03:31 | 14.49837 | 120.99989 | 38 ft | 10 kts | 151° |
| 2026-05-07 03:31 | 14.49803 | 121.00046 | 38 ft | 9 kts | 77° |
| 2026-05-07 03:31 | 14.49830 | 121.00098 | 39 ft | 7 kts | 60° |
| 2026-05-07 03:32 | 14.49837 | 121.00109 | 39 ft | 0 kts | 59° |
| 2026-05-07 03:32 | 14.49853 | 121.00137 | 39 ft | 21 kts | 59° |
| 2026-05-07 03:33 | 14.50028 | 121.00455 | 40 ft | 79 kts | 62° |
| 2026-05-07 03:33 | 14.50385 | 121.01101 | 49 ft | 129 kts | 60° |
| 2026-05-07 03:33 | 14.50908 | 121.02045 | 55 ft | 168 kts | 64° |
| 2026-05-07 03:33 | 14.51404 | 121.02913 | 484 ft | 160 kts | 55° |
| 2026-05-07 03:34 | 14.52014 | 121.03948 | 764 ft | 176 kts | 58° |
| 2026-05-07 03:34 | 14.52637 | 121.05051 | 1169 ft | 181 kts | 58° |
| 2026-05-07 03:34 | 14.53306 | 121.06241 | 1436 ft | 202 kts | 59° |
| 2026-05-07 03:34 | 14.54041 | 121.07548 | 1673 ft | 223 kts | 59° |
| 2026-05-07 03:35 | 14.54871 | 121.09021 | 1885 ft | 248 kts | 59° |
| 2026-05-07 03:35 | 14.55737 | 121.10605 | 2389 ft | 257 kts | 63° |
| 2026-05-07 03:35 | 14.56240 | 121.12219 | 3001 ft | 258 kts | 82° |
| 2026-05-07 03:35 | 14.56096 | 121.14050 | 3685 ft | 259 kts | 106° |
| 2026-05-07 03:36 | 14.55219 | 121.15644 | 4373 ft | 260 kts | 126° |
| 2026-05-07 03:36 | 14.53999 | 121.17003 | 5093 ft | 262 kts | 131° |
| 2026-05-07 03:36 | 14.52700 | 121.18335 | 5716 ft | 266 kts | 131° |
| 2026-05-07 03:36 | 14.51370 | 121.19686 | 6299 ft | 271 kts | 132° |
| 2026-05-07 03:37 | 14.50023 | 121.21060 | 6767 ft | 274 kts | 132° |
| 2026-05-07 03:37 | 14.48638 | 121.22427 | 6964 ft | 277 kts | 137° |
| 2026-05-07 03:37 | 14.47003 | 121.23429 | 7004 ft | 281 kts | 157° |
| 2026-05-07 03:37 | 14.45057 | 121.23710 | 7004 ft | 286 kts | 182° |
| 2026-05-07 03:38 | 14.43164 | 121.23113 | 7083 ft | 292 kts | 207° |
| 2026-05-07 03:38 | 14.41596 | 121.21767 | 7578 ft | 296 kts | 223° |
| 2026-05-07 03:38 | 14.40201 | 121.20209 | 8266 ft | 295 kts | 225° |
| 2026-05-07 03:38 | 14.38834 | 121.18622 | 8901 ft | 297 kts | 224° |
| 2026-05-07 03:39 | 14.37454 | 121.17023 | 9561 ft | 298 kts | 225° |
| 2026-05-07 03:39 | 14.36068 | 121.15425 | 10119 ft | 302 kts | 225° |
| 2026-05-07 03:39 | 14.34630 | 121.13779 | 10365 ft | 317 kts | 225° |
| 2026-05-07 03:39 | 14.33113 | 121.12051 | 10546 ft | 333 kts | 225° |
| 2026-05-07 03:40 | 14.31523 | 121.10241 | 10744 ft | 348 kts | 224° |
| 2026-05-07 03:40 | 14.29875 | 121.08365 | 11041 ft | 357 kts | 224° |
| 2026-05-07 03:40 | 14.28169 | 121.06529 | 11446 ft | 361 kts | 219° |
| 2026-05-07 03:40 | 14.26188 | 121.04933 | 11933 ft | 363 kts | 212° |
| 2026-05-07 03:41 | 14.24096 | 121.03436 | 12327 ft | 368 kts | 211° |
| 2026-05-07 03:41 | 14.21991 | 121.01960 | 12759 ft | 372 kts | 211° |
| 2026-05-07 03:41 | 14.19841 | 121.00454 | 13221 ft | 375 kts | 211° |
| 2026-05-07 03:41 | 14.17687 | 120.98939 | 13735 ft | 376 kts | 211° |
| 2026-05-07 03:42 | 14.15510 | 120.97409 | 14178 ft | 378 kts | 211° |
| 2026-05-07 03:42 | 14.13329 | 120.95872 | 14608 ft | 381 kts | 211° |
| 2026-05-07 03:42 | 14.11157 | 120.94343 | 15014 ft | 384 kts | 211° |
| 2026-05-07 03:42 | 14.08943 | 120.92784 | 15429 ft | 388 kts | 211° |
| 2026-05-07 03:43 | 14.06709 | 120.91211 | 15865 ft | 390 kts | 212° |
| 2026-05-07 03:43 | 14.04465 | 120.89630 | 16317 ft | 393 kts | 212° |
| 2026-05-07 03:43 | 14.02206 | 120.88038 | 16781 ft | 394 kts | 212° |
| 2026-05-07 03:43 | 13.99975 | 120.86467 | 17152 ft | 398 kts | 211° |
| 2026-05-07 03:44 | 13.97687 | 120.84856 | 17554 ft | 401 kts | 211° |
| 2026-05-07 03:44 | 13.95375 | 120.83228 | 17946 ft | 404 kts | 211° |
| 2026-05-07 03:44 | 13.93082 | 120.81607 | 18315 ft | 406 kts | 212° |
| 2026-05-07 03:44 | 13.90758 | 120.79955 | 18668 ft | 407 kts | 212° |
| 2026-05-07 03:45 | 13.88416 | 120.78294 | 19002 ft | 409 kts | 212° |
| 2026-05-07 03:45 | 13.86075 | 120.76639 | 19316 ft | 412 kts | 212° |
| 2026-05-07 03:45 | 13.83691 | 120.74959 | 19613 ft | 414 kts | 212° |
| 2026-05-07 03:45 | 13.81310 | 120.73282 | 19887 ft | 417 kts | 212° |
| 2026-05-07 03:46 | 13.78904 | 120.71589 | 20193 ft | 419 kts | 212° |
| 2026-05-07 03:46 | 13.76501 | 120.69900 | 20516 ft | 421 kts | 212° |
| 2026-05-07 03:46 | 13.74072 | 120.68193 | 20817 ft | 423 kts | 212° |
| 2026-05-07 03:46 | 13.71635 | 120.66482 | 21064 ft | 427 kts | 212° |
| 2026-05-07 03:47 | 13.69211 | 120.64779 | 21445 ft | 427 kts | 212° |
| 2026-05-07 03:47 | 13.66763 | 120.63061 | 21840 ft | 427 kts | 212° |
| 2026-05-07 03:47 | 13.64294 | 120.61328 | 22095 ft | 432 kts | 212° |
| 2026-05-07 03:47 | 13.61808 | 120.59587 | 22381 ft | 435 kts | 212° |
| 2026-05-07 03:48 | 13.59221 | 120.57975 | 22717 ft | 436 kts | 206° |
| 2026-05-07 03:48 | 13.56525 | 120.56548 | 23086 ft | 436 kts | 203° |
| 2026-05-07 03:48 | 13.53786 | 120.55214 | 23465 ft | 436 kts | 203° |
| 2026-05-07 03:48 | 13.51016 | 120.53913 | 23709 ft | 439 kts | 202° |
| 2026-05-07 03:49 | 13.48258 | 120.52630 | 23965 ft | 442 kts | 202° |
| 2026-05-07 03:49 | 13.45456 | 120.51319 | 24216 ft | 445 kts | 202° |
| 2026-05-07 03:49 | 13.42638 | 120.49989 | 24523 ft | 446 kts | 203° |
| 2026-05-07 03:49 | 13.39825 | 120.48649 | 24830 ft | 447 kts | 203° |
| 2026-05-07 03:50 | 13.36995 | 120.47293 | 25142 ft | 449 kts | 204° |
| 2026-05-07 03:50 | 13.34156 | 120.45930 | 25432 ft | 451 kts | 204° |
| 2026-05-07 03:50 | 13.31300 | 120.44556 | 25656 ft | 455 kts | 204° |
| 2026-05-07 03:50 | 13.28439 | 120.43180 | 26002 ft | 456 kts | 204° |
| 2026-05-07 03:51 | 13.25561 | 120.41795 | 26336 ft | 456 kts | 204° |
| 2026-05-07 03:51 | 13.22699 | 120.40420 | 26608 ft | 459 kts | 204° |
| 2026-05-07 03:51 | 13.19859 | 120.39056 | 26892 ft | 460 kts | 204° |
| 2026-05-07 03:51 | 13.16951 | 120.37660 | 27176 ft | 462 kts | 204° |
| 2026-05-07 03:52 | 13.14036 | 120.36262 | 27434 ft | 464 kts | 204° |
| 2026-05-07 03:52 | 13.11107 | 120.34856 | 27699 ft | 466 kts | 204° |
| 2026-05-07 03:52 | 13.08169 | 120.33448 | 27961 ft | 468 kts | 204° |
| 2026-05-07 03:52 | 13.05215 | 120.32032 | 28218 ft | 469 kts | 204° |
| 2026-05-07 03:53 | 13.02248 | 120.30610 | 28474 ft | 471 kts | 204° |
| 2026-05-07 03:53 | 12.99270 | 120.29183 | 28722 ft | 473 kts | 204° |
| 2026-05-07 03:53 | 12.96282 | 120.27751 | 28974 ft | 475 kts | 204° |
| 2026-05-07 03:53 | 12.93334 | 120.26339 | 29262 ft | 475 kts | 204° |
| 2026-05-07 03:54 | 12.90341 | 120.24907 | 29616 ft | 474 kts | 204° |
| 2026-05-07 03:54 | 12.87358 | 120.23479 | 29962 ft | 473 kts | 205° |
| 2026-05-07 03:54 | 12.84374 | 120.22051 | 30262 ft | 472 kts | 205° |
| 2026-05-07 03:54 | 12.81402 | 120.20629 | 30594 ft | 470 kts | 205° |
| 2026-05-07 03:55 | 12.78458 | 120.19221 | 30924 ft | 468 kts | 205° |
| 2026-05-07 03:55 | 12.75507 | 120.17810 | 31246 ft | 466 kts | 205° |
| 2026-05-07 03:55 | 12.72579 | 120.16409 | 31554 ft | 464 kts | 205° |
| 2026-05-07 03:55 | 12.69657 | 120.15012 | 31807 ft | 464 kts | 205° |
| 2026-05-07 03:56 | 12.66773 | 120.13633 | 31861 ft | 464 kts | 205° |
| 2026-05-07 03:56 | 12.60928 | 120.10840 | 31869 ft | 463 kts | 205° |
| 2026-05-07 03:57 | 12.55094 | 120.08053 | 31872 ft | 463 kts | 205° |
| 2026-05-07 03:57 | 12.49246 | 120.05239 | 31878 ft | 465 kts | 206° |
| 2026-05-07 03:57 | 12.46313 | 120.03824 | 32066 ft | 465 kts | 205° |
| 2026-05-07 03:58 | 12.43428 | 120.02438 | 32394 ft | 463 kts | 205° |
| 2026-05-07 03:58 | 12.40519 | 120.01044 | 32747 ft | 460 kts | 205° |
| 2026-05-07 03:58 | 12.37631 | 119.99664 | 33068 ft | 457 kts | 205° |
| 2026-05-07 03:58 | 12.34756 | 119.98292 | 33378 ft | 455 kts | 205° |
| 2026-05-07 03:59 | 12.31892 | 119.96927 | 33667 ft | 453 kts | 205° |
| 2026-05-07 03:59 | 12.29044 | 119.95570 | 33917 ft | 452 kts | 205° |
| 2026-05-07 03:59 | 12.26198 | 119.94215 | 34122 ft | 451 kts | 205° |
| 2026-05-07 03:59 | 12.23394 | 119.92879 | 34315 ft | 450 kts | 205° |
| 2026-05-07 04:00 | 12.20560 | 119.91530 | 34509 ft | 449 kts | 205° |
| 2026-05-07 04:00 | 12.17728 | 119.90182 | 34701 ft | 448 kts | 205° |
| 2026-05-07 04:00 | 12.14902 | 119.88837 | 34844 ft | 449 kts | 205° |
| 2026-05-07 04:01 | 12.09238 | 119.86143 | 34867 ft | 448 kts | 205° |
| 2026-05-07 04:01 | 12.03594 | 119.83460 | 34864 ft | 447 kts | 205° |
| 2026-05-07 04:02 | 11.97987 | 119.80795 | 34872 ft | 448 kts | 205° |
| 2026-05-07 04:02 | 11.92337 | 119.78112 | 34871 ft | 448 kts | 205° |
| 2026-05-07 04:03 | 11.86679 | 119.75426 | 34864 ft | 448 kts | 205° |
| 2026-05-07 04:03 | 11.81022 | 119.72742 | 34862 ft | 448 kts | 205° |
| 2026-05-07 04:04 | 11.75403 | 119.70077 | 34868 ft | 448 kts | 205° |
| 2026-05-07 04:04 | 11.70130 | 119.66746 | 34870 ft | 446 kts | 222° |
| 2026-05-07 04:05 | 11.66026 | 119.62034 | 34874 ft | 445 kts | 232° |
| 2026-05-07 04:05 | 11.62351 | 119.56958 | 34871 ft | 445 kts | 234° |
| 2026-05-07 04:06 | 11.58778 | 119.51866 | 34869 ft | 445 kts | 234° |
| 2026-05-07 04:06 | 11.55137 | 119.46761 | 34866 ft | 445 kts | 233° |
| 2026-05-07 04:07 | 11.51473 | 119.41686 | 34871 ft | 445 kts | 233° |
| 2026-05-07 04:07 | 11.47812 | 119.36597 | 34867 ft | 445 kts | 233° |
| 2026-05-07 04:08 | 11.44180 | 119.31532 | 34873 ft | 446 kts | 233° |
| 2026-05-07 04:08 | 11.40522 | 119.26426 | 34869 ft | 446 kts | 233° |
| 2026-05-07 04:09 | 11.36864 | 119.21323 | 34869 ft | 446 kts | 233° |
| 2026-05-07 04:09 | 11.33204 | 119.16221 | 34871 ft | 446 kts | 233° |
| 2026-05-07 04:10 | 11.29567 | 119.11153 | 34869 ft | 446 kts | 233° |
| 2026-05-07 04:10 | 11.25905 | 119.06054 | 34866 ft | 446 kts | 233° |
| 2026-05-07 04:11 | 11.22242 | 119.00956 | 34859 ft | 446 kts | 233° |
| 2026-05-07 04:11 | 11.18577 | 118.95876 | 34865 ft | 447 kts | 233° |
| 2026-05-07 04:12 | 11.14921 | 118.90812 | 34868 ft | 447 kts | 233° |
| 2026-05-07 04:12 | 11.11238 | 118.85700 | 34868 ft | 447 kts | 233° |
| 2026-05-07 04:13 | 11.07560 | 118.80591 | 34869 ft | 447 kts | 233° |
| 2026-05-07 04:13 | 11.03884 | 118.75486 | 34860 ft | 447 kts | 233° |
| 2026-05-07 04:14 | 11.00209 | 118.70384 | 34874 ft | 447 kts | 233° |
| 2026-05-07 04:14 | 10.96552 | 118.65312 | 34866 ft | 447 kts | 233° |
| 2026-05-07 04:15 | 10.92874 | 118.60214 | 34861 ft | 447 kts | 233° |
| 2026-05-07 04:15 | 10.89193 | 118.55112 | 34867 ft | 448 kts | 233° |
| 2026-05-07 04:16 | 10.85502 | 118.50000 | 34865 ft | 448 kts | 233° |
| 2026-05-07 04:16 | 10.81815 | 118.44897 | 34856 ft | 448 kts | 233° |
| 2026-05-07 04:17 | 10.78151 | 118.39827 | 34866 ft | 448 kts | 233° |
| 2026-05-07 04:17 | 10.74462 | 118.34724 | 34866 ft | 448 kts | 234° |
| 2026-05-07 04:18 | 10.70772 | 118.29625 | 34864 ft | 447 kts | 233° |
| 2026-05-07 04:18 | 10.67085 | 118.24529 | 34862 ft | 447 kts | 234° |
| 2026-05-07 04:19 | 10.63423 | 118.19473 | 34866 ft | 447 kts | 234° |
| 2026-05-07 04:19 | 10.59728 | 118.14371 | 34863 ft | 449 kts | 234° |
| 2026-05-07 04:20 | 10.56026 | 118.09264 | 34859 ft | 449 kts | 233° |
| 2026-05-07 04:20 | 10.52323 | 118.04157 | 34860 ft | 449 kts | 233° |
| 2026-05-07 04:21 | 10.46781 | 117.96518 | 34859 ft | 450 kts | 234° |
| 2026-05-07 04:21 | 10.43082 | 117.91422 | 34859 ft | 450 kts | 233° |
| 2026-05-07 04:22 | 10.39366 | 117.86304 | 34859 ft | 450 kts | 234° |
| 2026-05-07 04:22 | 10.35652 | 117.81191 | 34860 ft | 450 kts | 233° |
| 2026-05-07 04:23 | 10.31984 | 117.76099 | 34857 ft | 450 kts | 233° |
| 2026-05-07 04:23 | 10.28310 | 117.70960 | 34858 ft | 450 kts | 234° |
| 2026-05-07 04:24 | 10.24633 | 117.65820 | 34859 ft | 449 kts | 234° |
| 2026-05-07 04:24 | 10.20955 | 117.60685 | 34860 ft | 450 kts | 234° |
| 2026-05-07 04:25 | 10.17299 | 117.55587 | 34858 ft | 450 kts | 233° |
| 2026-05-07 04:25 | 10.13618 | 117.50457 | 34859 ft | 450 kts | 234° |
| 2026-05-07 04:26 | 10.09938 | 117.45330 | 34861 ft | 450 kts | 234° |
| 2026-05-07 04:26 | 10.06247 | 117.40190 | 34853 ft | 450 kts | 233° |
| 2026-05-07 04:27 | 10.02575 | 117.35079 | 34858 ft | 452 kts | 234° |
| 2026-05-07 04:27 | 9.98868 | 117.29923 | 34858 ft | 452 kts | 233° |
| 2026-05-07 04:28 | 9.95157 | 117.24763 | 34859 ft | 452 kts | 234° |
| 2026-05-07 04:28 | 9.91455 | 117.19615 | 34857 ft | 452 kts | 234° |
| 2026-05-07 04:29 | 9.87746 | 117.14458 | 34856 ft | 452 kts | 233° |
| 2026-05-07 04:29 | 9.84059 | 117.09340 | 34857 ft | 453 kts | 234° |
| 2026-05-07 04:30 | 9.80340 | 117.04179 | 34856 ft | 453 kts | 233° |
| 2026-05-07 04:30 | 9.76621 | 116.99018 | 34853 ft | 453 kts | 234° |
| 2026-05-07 04:31 | 9.72898 | 116.93852 | 34854 ft | 455 kts | 234° |
| 2026-05-07 04:31 | 9.69183 | 116.88702 | 34854 ft | 456 kts | 234° |
| 2026-05-07 04:32 | 9.65445 | 116.83521 | 34854 ft | 456 kts | 233° |
| 2026-05-07 04:32 | 9.61702 | 116.78336 | 34853 ft | 456 kts | 233° |
| 2026-05-07 04:33 | 9.57979 | 116.73183 | 34852 ft | 456 kts | 233° |
| 2026-05-07 04:33 | 9.54226 | 116.67987 | 34854 ft | 455 kts | 234° |
| 2026-05-07 04:34 | 9.50510 | 116.62845 | 34854 ft | 455 kts | 233° |
| 2026-05-07 04:34 | 9.46766 | 116.57668 | 34851 ft | 456 kts | 233° |
| 2026-05-07 04:35 | 9.43167 | 116.52690 | 34852 ft | 458 kts | 233° |
| 2026-05-07 04:35 | 9.39370 | 116.47443 | 34853 ft | 458 kts | 233° |
| 2026-05-07 04:36 | 9.35628 | 116.42273 | 34852 ft | 458 kts | 234° |
| 2026-05-07 04:36 | 9.31870 | 116.37087 | 34851 ft | 458 kts | 233° |
| 2026-05-07 04:37 | 9.28133 | 116.31930 | 34848 ft | 458 kts | 234° |
| 2026-05-07 04:37 | 9.24346 | 116.26728 | 34849 ft | 458 kts | 233° |
| 2026-05-07 04:38 | 9.20557 | 116.21545 | 34848 ft | 458 kts | 233° |
| 2026-05-07 04:38 | 9.16797 | 116.16402 | 35024 ft | 458 kts | 233° |
| 2026-05-07 04:39 | 9.14905 | 116.13816 | 35208 ft | 457 kts | 233° |
| 2026-05-07 04:39 | 9.13013 | 116.11228 | 35376 ft | 456 kts | 233° |
| 2026-05-07 04:39 | 9.11132 | 116.08655 | 35556 ft | 455 kts | 233° |
| 2026-05-07 04:39 | 9.09252 | 116.06082 | 35715 ft | 454 kts | 233° |
| 2026-05-07 04:40 | 9.07375 | 116.03515 | 35830 ft | 454 kts | 232° |
| 2026-05-07 04:40 | 9.05496 | 116.00946 | 35847 ft | 454 kts | 233° |
| 2026-05-07 04:40 | 9.01764 | 115.95847 | 35849 ft | 453 kts | 233° |
| 2026-05-07 04:41 | 8.98011 | 115.90720 | 35847 ft | 454 kts | 233° |
| 2026-05-07 04:41 | 8.94249 | 115.85585 | 35848 ft | 455 kts | 233° |
| 2026-05-07 04:42 | 8.90484 | 115.80446 | 35848 ft | 455 kts | 233° |
| 2026-05-07 04:42 | 8.86742 | 115.75340 | 35847 ft | 454 kts | 232° |
| 2026-05-07 04:43 | 8.82980 | 115.70209 | 35848 ft | 454 kts | 233° |
| 2026-05-07 04:43 | 8.79215 | 115.65076 | 35848 ft | 454 kts | 233° |
| 2026-05-07 04:44 | 8.75453 | 115.59938 | 35847 ft | 456 kts | 232° |
| 2026-05-07 04:44 | 8.71682 | 115.54780 | 35848 ft | 456 kts | 233° |
| 2026-05-07 04:45 | 8.67933 | 115.49665 | 35845 ft | 456 kts | 233° |
| 2026-05-07 04:45 | 8.64153 | 115.44519 | 35846 ft | 456 kts | 233° |
| 2026-05-07 04:46 | 8.60374 | 115.39378 | 35846 ft | 456 kts | 233° |
| 2026-05-07 04:46 | 8.56592 | 115.34233 | 35845 ft | 456 kts | 233° |
| 2026-05-07 04:47 | 8.52805 | 115.29084 | 35845 ft | 458 kts | 233° |
| 2026-05-07 04:47 | 8.49027 | 115.23949 | 35844 ft | 459 kts | 233° |
| 2026-05-07 04:48 | 8.45218 | 115.18774 | 35846 ft | 459 kts | 233° |
| 2026-05-07 04:48 | 8.41489 | 115.13710 | 35843 ft | 459 kts | 233° |
| 2026-05-07 04:49 | 8.37796 | 115.08697 | 35843 ft | 459 kts | 232° |
| 2026-05-07 04:49 | 8.33986 | 115.03524 | 35843 ft | 459 kts | 232° |
| 2026-05-07 04:50 | 8.30176 | 114.98355 | 35841 ft | 458 kts | 232° |
| 2026-05-07 04:50 | 8.26365 | 114.93186 | 35843 ft | 459 kts | 232° |
| 2026-05-07 04:51 | 8.22555 | 114.88022 | 35839 ft | 459 kts | 232° |
| 2026-05-07 04:51 | 8.18768 | 114.82890 | 35840 ft | 459 kts | 232° |
| 2026-05-07 04:52 | 8.14953 | 114.77722 | 35841 ft | 459 kts | 232° |
| 2026-05-07 04:52 | 8.11142 | 114.72561 | 35839 ft | 459 kts | 232° |
| 2026-05-07 04:53 | 8.07328 | 114.67398 | 35840 ft | 459 kts | 232° |
| 2026-05-07 04:53 | 8.03540 | 114.62272 | 35841 ft | 459 kts | 232° |
| 2026-05-07 04:54 | 7.99726 | 114.57113 | 35840 ft | 458 kts | 232° |
| 2026-05-07 04:54 | 7.95913 | 114.51956 | 35840 ft | 459 kts | 232° |
| 2026-05-07 04:55 | 7.92095 | 114.46795 | 35841 ft | 459 kts | 232° |
| 2026-05-07 04:55 | 7.88273 | 114.41630 | 35839 ft | 459 kts | 232° |
| 2026-05-07 04:56 | 7.84479 | 114.36504 | 35839 ft | 460 kts | 232° |
| 2026-05-07 04:56 | 7.80650 | 114.31335 | 35841 ft | 460 kts | 232° |
| 2026-05-07 04:57 | 7.76818 | 114.26162 | 35839 ft | 460 kts | 232° |
| 2026-05-07 04:57 | 7.73011 | 114.21024 | 35842 ft | 460 kts | 232° |
| 2026-05-07 04:58 | 7.69178 | 114.15854 | 35839 ft | 460 kts | 232° |
| 2026-05-07 04:58 | 7.65349 | 114.10691 | 35839 ft | 460 kts | 232° |
| 2026-05-07 04:59 | 7.61514 | 114.05520 | 35840 ft | 460 kts | 232° |
| 2026-05-07 04:59 | 7.57675 | 114.00346 | 35839 ft | 460 kts | 232° |
| 2026-05-07 05:00 | 7.53842 | 113.95183 | 35839 ft | 460 kts | 232° |
| 2026-05-07 05:00 | 7.50034 | 113.90055 | 35840 ft | 460 kts | 232° |
| 2026-05-07 05:01 | 7.46856 | 113.85778 | 35838 ft | 460 kts | 232° |
| 2026-05-07 05:01 | 7.43032 | 113.80631 | 35839 ft | 461 kts | 232° |
| 2026-05-07 05:02 | 7.39192 | 113.75464 | 35838 ft | 460 kts | 231° |
| 2026-05-07 05:02 | 7.35358 | 113.70306 | 35838 ft | 461 kts | 232° |
| 2026-05-07 05:03 | 7.31541 | 113.65174 | 35837 ft | 461 kts | 232° |
| 2026-05-07 05:03 | 7.27698 | 113.60009 | 35834 ft | 461 kts | 232° |
| 2026-05-07 05:04 | 7.23852 | 113.54841 | 35837 ft | 461 kts | 232° |
| 2026-05-07 05:04 | 7.20019 | 113.49692 | 35835 ft | 461 kts | 232° |
| 2026-05-07 05:05 | 7.16170 | 113.44524 | 35835 ft | 461 kts | 232° |
| 2026-05-07 05:05 | 7.12364 | 113.39415 | 35837 ft | 461 kts | 232° |
| 2026-05-07 05:06 | 7.08519 | 113.34255 | 35834 ft | 460 kts | 232° |
| 2026-05-07 05:06 | 7.04673 | 113.29094 | 35835 ft | 461 kts | 232° |
| 2026-05-07 05:07 | 7.00829 | 113.23938 | 35836 ft | 461 kts | 232° |
| 2026-05-07 05:07 | 6.97010 | 113.18817 | 35832 ft | 460 kts | 231° |
| 2026-05-07 05:08 | 6.93172 | 113.13674 | 35835 ft | 459 kts | 231° |
| 2026-05-07 05:08 | 6.89338 | 113.08538 | 35836 ft | 459 kts | 231° |
| 2026-05-07 05:09 | 6.85499 | 113.03396 | 35834 ft | 459 kts | 231° |
| 2026-05-07 05:09 | 6.81680 | 112.98283 | 35834 ft | 459 kts | 231° |
| 2026-05-07 05:10 | 6.77856 | 112.93164 | 35837 ft | 459 kts | 231° |
| 2026-05-07 05:10 | 6.74020 | 112.88029 | 35836 ft | 459 kts | 231° |
| 2026-05-07 05:11 | 6.70193 | 112.82909 | 35834 ft | 459 kts | 231° |
| 2026-05-07 05:11 | 6.66360 | 112.77781 | 35835 ft | 459 kts | 231° |
| 2026-05-07 05:12 | 6.62520 | 112.72647 | 35836 ft | 459 kts | 231° |
| 2026-05-07 05:12 | 6.58705 | 112.67548 | 35834 ft | 459 kts | 231° |
| 2026-05-07 05:13 | 6.54868 | 112.62420 | 35835 ft | 459 kts | 231° |
| 2026-05-07 05:13 | 6.51029 | 112.57292 | 35837 ft | 459 kts | 231° |
| 2026-05-07 05:14 | 6.47183 | 112.52157 | 35833 ft | 459 kts | 231° |
| 2026-05-07 05:14 | 6.43365 | 112.47061 | 35832 ft | 459 kts | 231° |
| 2026-05-07 05:15 | 6.39553 | 112.41973 | 35831 ft | 459 kts | 230° |
| 2026-05-07 05:15 | 6.35716 | 112.36855 | 35831 ft | 459 kts | 230° |
| 2026-05-07 05:16 | 6.31875 | 112.31731 | 35831 ft | 459 kts | 230° |
| 2026-05-07 05:16 | 6.28053 | 112.26635 | 35831 ft | 459 kts | 230° |
| 2026-05-07 05:17 | 6.24206 | 112.21505 | 35832 ft | 459 kts | 230° |
| 2026-05-07 05:17 | 6.20356 | 112.16375 | 35831 ft | 459 kts | 230° |
| 2026-05-07 05:18 | 6.16510 | 112.11251 | 35828 ft | 459 kts | 230° |
| 2026-05-07 05:18 | 6.12673 | 112.06140 | 35828 ft | 460 kts | 230° |
| 2026-05-07 05:19 | 6.08845 | 112.01043 | 35829 ft | 460 kts | 230° |
| 2026-05-07 05:19 | 6.04997 | 111.95920 | 35829 ft | 460 kts | 230° |
| 2026-05-07 05:20 | 6.01175 | 111.90834 | 35830 ft | 460 kts | 230° |
| 2026-05-07 05:20 | 5.97298 | 111.85674 | 35829 ft | 459 kts | 230° |
| 2026-05-07 05:21 | 5.91555 | 111.78035 | 35830 ft | 458 kts | 230° |
| 2026-05-07 05:22 | 5.87717 | 111.72933 | 35827 ft | 458 kts | 230° |
| 2026-05-07 05:22 | 5.83883 | 111.67836 | 35829 ft | 458 kts | 230° |
| 2026-05-07 05:23 | 5.80042 | 111.62731 | 35829 ft | 458 kts | 230° |
| 2026-05-07 05:23 | 5.76232 | 111.57669 | 35829 ft | 458 kts | 230° |
| 2026-05-07 05:24 | 5.72409 | 111.52591 | 35826 ft | 457 kts | 230° |
| 2026-05-07 05:24 | 5.68570 | 111.47493 | 35828 ft | 458 kts | 230° |
| 2026-05-07 05:25 | 5.64732 | 111.42397 | 35830 ft | 459 kts | 230° |
| 2026-05-07 05:25 | 5.60900 | 111.37311 | 35828 ft | 460 kts | 230° |
| 2026-05-07 05:26 | 5.57044 | 111.32196 | 35829 ft | 460 kts | 230° |
| 2026-05-07 05:26 | 5.53174 | 111.27060 | 35826 ft | 460 kts | 230° |
| 2026-05-07 05:27 | 5.49305 | 111.21929 | 35825 ft | 460 kts | 230° |
| 2026-05-07 05:27 | 5.45443 | 111.16808 | 35825 ft | 460 kts | 230° |
| 2026-05-07 05:28 | 5.41600 | 111.11713 | 35826 ft | 460 kts | 230° |
| 2026-05-07 05:28 | 5.37736 | 111.06591 | 35825 ft | 460 kts | 230° |
| 2026-05-07 05:29 | 5.33884 | 111.01488 | 35823 ft | 460 kts | 230° |
| 2026-05-07 05:29 | 5.30013 | 110.96361 | 35823 ft | 461 kts | 230° |
| 2026-05-07 05:30 | 5.26144 | 110.91236 | 35825 ft | 461 kts | 230° |
| 2026-05-07 05:30 | 5.22294 | 110.86137 | 35826 ft | 461 kts | 230° |
| 2026-05-07 05:31 | 5.18418 | 110.81005 | 35827 ft | 461 kts | 230° |
| 2026-05-07 05:31 | 5.14542 | 110.75876 | 35827 ft | 461 kts | 230° |
| 2026-05-07 05:32 | 5.10696 | 110.70786 | 35827 ft | 461 kts | 230° |
| 2026-05-07 05:32 | 5.06835 | 110.65680 | 35826 ft | 461 kts | 230° |
| 2026-05-07 05:33 | 5.02955 | 110.60548 | 35824 ft | 461 kts | 230° |
| 2026-05-07 05:33 | 4.99085 | 110.55430 | 35823 ft | 461 kts | 230° |
| 2026-05-07 05:34 | 4.95227 | 110.50330 | 35824 ft | 463 kts | 230° |
| 2026-05-07 05:34 | 4.91337 | 110.45188 | 35825 ft | 463 kts | 230° |
| 2026-05-07 05:35 | 4.87586 | 110.40231 | 35827 ft | 461 kts | 230° |
| 2026-05-07 05:35 | 4.87105 | 110.39595 | 35825 ft | 461 kts | 230° |
| 2026-05-07 05:36 | 4.83226 | 110.34471 | 35822 ft | 461 kts | 230° |
| 2026-05-07 05:36 | 4.79379 | 110.29390 | 35828 ft | 461 kts | 230° |
| 2026-05-07 05:37 | 4.75499 | 110.24267 | 35827 ft | 461 kts | 230° |
| 2026-05-07 05:37 | 4.71619 | 110.19144 | 35824 ft | 461 kts | 230° |
| 2026-05-07 05:38 | 4.67742 | 110.14023 | 35819 ft | 461 kts | 230° |
| 2026-05-07 05:38 | 4.63893 | 110.08944 | 35819 ft | 460 kts | 230° |
| 2026-05-07 05:39 | 4.60014 | 110.03826 | 35824 ft | 462 kts | 230° |
| 2026-05-07 05:39 | 4.56126 | 109.98697 | 35823 ft | 462 kts | 230° |
| 2026-05-07 05:40 | 4.52241 | 109.93573 | 35823 ft | 462 kts | 230° |
| 2026-05-07 05:40 | 4.48356 | 109.88450 | 35824 ft | 462 kts | 230° |
| 2026-05-07 05:41 | 4.44532 | 109.83408 | 35824 ft | 462 kts | 230° |
| 2026-05-07 05:41 | 4.40649 | 109.78288 | 35822 ft | 462 kts | 230° |
| 2026-05-07 05:42 | 4.36798 | 109.73212 | 35825 ft | 461 kts | 230° |
| 2026-05-07 05:42 | 4.32918 | 109.68101 | 35823 ft | 461 kts | 230° |
| 2026-05-07 05:43 | 4.29079 | 109.63046 | 35820 ft | 461 kts | 230° |
| 2026-05-07 05:43 | 4.25169 | 109.57896 | 35820 ft | 463 kts | 230° |
| 2026-05-07 05:44 | 4.21311 | 109.52815 | 35820 ft | 463 kts | 230° |
| 2026-05-07 05:44 | 4.17411 | 109.47681 | 35820 ft | 463 kts | 230° |
| 2026-05-07 05:45 | 4.13519 | 109.42557 | 35820 ft | 463 kts | 230° |
| 2026-05-07 05:45 | 4.09618 | 109.37423 | 35820 ft | 463 kts | 230° |
| 2026-05-07 05:46 | 4.05745 | 109.32328 | 35822 ft | 463 kts | 230° |
| 2026-05-07 05:46 | 4.01843 | 109.27195 | 35822 ft | 463 kts | 230° |
| 2026-05-07 05:47 | 3.97945 | 109.22067 | 35821 ft | 463 kts | 230° |
| 2026-05-07 05:47 | 3.94049 | 109.16944 | 35820 ft | 463 kts | 230° |
| 2026-05-07 05:48 | 3.90144 | 109.11809 | 35821 ft | 463 kts | 230° |
| 2026-05-07 05:48 | 3.86269 | 109.06714 | 35820 ft | 463 kts | 230° |
| 2026-05-07 05:49 | 3.82368 | 109.01587 | 35820 ft | 463 kts | 230° |
| 2026-05-07 05:49 | 3.78471 | 108.96465 | 35819 ft | 463 kts | 230° |
| 2026-05-07 05:50 | 3.74582 | 108.91356 | 35821 ft | 463 kts | 230° |
| 2026-05-07 05:50 | 3.70705 | 108.86262 | 35820 ft | 463 kts | 230° |
| 2026-05-07 05:51 | 3.66808 | 108.81128 | 35821 ft | 463 kts | 230° |
| 2026-05-07 05:51 | 3.62918 | 108.75996 | 35819 ft | 463 kts | 230° |
| 2026-05-07 05:52 | 3.59027 | 108.70865 | 35818 ft | 463 kts | 230° |
| 2026-05-07 05:52 | 3.55127 | 108.65726 | 35817 ft | 464 kts | 230° |
| 2026-05-07 05:53 | 3.51267 | 108.60638 | 35820 ft | 464 kts | 230° |
| 2026-05-07 05:53 | 3.47371 | 108.55506 | 35819 ft | 464 kts | 230° |
| 2026-05-07 05:54 | 3.43464 | 108.50359 | 35817 ft | 463 kts | 230° |
| 2026-05-07 05:54 | 3.39565 | 108.45224 | 35817 ft | 464 kts | 230° |
| 2026-05-07 05:55 | 3.35691 | 108.40121 | 35817 ft | 463 kts | 230° |
| 2026-05-07 05:55 | 3.31796 | 108.34993 | 35818 ft | 463 kts | 230° |
| 2026-05-07 05:56 | 3.27901 | 108.29866 | 35814 ft | 463 kts | 230° |
| 2026-05-07 05:56 | 3.24005 | 108.24738 | 35767 ft | 463 kts | 230° |
| 2026-05-07 05:56 | 3.22058 | 108.22174 | 35532 ft | 462 kts | 230° |
| 2026-05-07 05:57 | 3.20141 | 108.19650 | 35301 ft | 462 kts | 230° |
| 2026-05-07 05:57 | 3.18216 | 108.17117 | 35076 ft | 462 kts | 230° |
| 2026-05-07 05:57 | 3.16266 | 108.14552 | 34866 ft | 462 kts | 229° |
| 2026-05-07 05:58 | 3.12398 | 108.09466 | 34821 ft | 463 kts | 229° |
| 2026-05-07 05:58 | 3.08497 | 108.04334 | 34810 ft | 463 kts | 230° |
| 2026-05-07 05:59 | 3.04602 | 107.99209 | 34816 ft | 463 kts | 230° |
| 2026-05-07 05:59 | 3.00729 | 107.94115 | 34813 ft | 463 kts | 230° |
| 2026-05-07 06:00 | 2.96830 | 107.88989 | 34823 ft | 463 kts | 229° |
| 2026-05-07 06:00 | 2.92930 | 107.83859 | 34822 ft | 463 kts | 229° |
| 2026-05-07 06:01 | 2.89031 | 107.78733 | 34824 ft | 463 kts | 230° |
| 2026-05-07 06:01 | 2.85155 | 107.73639 | 34823 ft | 463 kts | 230° |
| 2026-05-07 06:02 | 2.81254 | 107.68511 | 34823 ft | 463 kts | 230° |
| 2026-05-07 06:02 | 2.77357 | 107.63388 | 34817 ft | 463 kts | 230° |
| 2026-05-07 06:03 | 2.73457 | 107.58264 | 34809 ft | 463 kts | 230° |
| 2026-05-07 06:03 | 2.69558 | 107.53141 | 34814 ft | 463 kts | 230° |
| 2026-05-07 06:04 | 2.65684 | 107.48052 | 34822 ft | 463 kts | 230° |
| 2026-05-07 06:04 | 2.61786 | 107.42931 | 34821 ft | 463 kts | 230° |
| 2026-05-07 06:05 | 2.57895 | 107.37821 | 34825 ft | 463 kts | 230° |
| 2026-05-07 06:05 | 2.54000 | 107.32707 | 34826 ft | 462 kts | 230° |
| 2026-05-07 06:06 | 2.50101 | 107.27586 | 34825 ft | 463 kts | 230° |
| 2026-05-07 06:06 | 2.46225 | 107.22496 | 34828 ft | 463 kts | 230° |
| 2026-05-07 06:07 | 2.42323 | 107.17374 | 34815 ft | 463 kts | 230° |
| 2026-05-07 06:07 | 2.38458 | 107.12222 | 34812 ft | 463 kts | 232° |
| 2026-05-07 06:08 | 2.34625 | 107.07100 | 34807 ft | 463 kts | 231° |
| 2026-05-07 06:08 | 2.30748 | 107.02000 | 34809 ft | 463 kts | 231° |
| 2026-05-07 06:09 | 2.26836 | 106.96891 | 34810 ft | 462 kts | 231° |
| 2026-05-07 06:09 | 2.22921 | 106.91787 | 34816 ft | 462 kts | 231° |
| 2026-05-07 06:10 | 2.19008 | 106.86682 | 34807 ft | 462 kts | 231° |
| 2026-05-07 06:10 | 2.15125 | 106.81615 | 34814 ft | 462 kts | 231° |
| 2026-05-07 06:11 | 2.11228 | 106.76529 | 34818 ft | 462 kts | 231° |
| 2026-05-07 06:11 | 2.07314 | 106.71421 | 34819 ft | 462 kts | 231° |
| 2026-05-07 06:12 | 2.03405 | 106.66321 | 34816 ft | 461 kts | 231° |
| 2026-05-07 06:12 | 1.99505 | 106.61232 | 34816 ft | 461 kts | 231° |
| 2026-05-07 06:13 | 1.95634 | 106.56182 | 34815 ft | 461 kts | 231° |
| 2026-05-07 06:13 | 1.91739 | 106.51102 | 34817 ft | 461 kts | 231° |
| 2026-05-07 06:14 | 1.87841 | 106.46017 | 34813 ft | 461 kts | 231° |
| 2026-05-07 06:14 | 1.83992 | 106.40996 | 34816 ft | 461 kts | 231° |
| 2026-05-07 06:14 | 1.82069 | 106.38488 | 34653 ft | 461 kts | 231° |
| 2026-05-07 06:15 | 1.80116 | 106.35942 | 34551 ft | 462 kts | 231° |
| 2026-05-07 06:15 | 1.78173 | 106.33408 | 34438 ft | 463 kts | 231° |
| 2026-05-07 06:15 | 1.76213 | 106.30852 | 34322 ft | 463 kts | 231° |
| 2026-05-07 06:15 | 1.74252 | 106.28295 | 34211 ft | 464 kts | 231° |
| 2026-05-07 06:16 | 1.72290 | 106.25736 | 34101 ft | 464 kts | 231° |
| 2026-05-07 06:16 | 1.70326 | 106.23176 | 33990 ft | 464 kts | 231° |
| 2026-05-07 06:16 | 1.68358 | 106.20610 | 33879 ft | 465 kts | 231° |
| 2026-05-07 06:16 | 1.66409 | 106.18069 | 33762 ft | 465 kts | 231° |
| 2026-05-07 06:17 | 1.64451 | 106.15516 | 33643 ft | 465 kts | 231° |
| 2026-05-07 06:17 | 1.62482 | 106.12948 | 33508 ft | 466 kts | 231° |
| 2026-05-07 06:17 | 1.60511 | 106.10377 | 33381 ft | 466 kts | 231° |
| 2026-05-07 06:17 | 1.58539 | 106.07805 | 33255 ft | 466 kts | 231° |
| 2026-05-07 06:18 | 1.56565 | 106.05232 | 33126 ft | 467 kts | 231° |
| 2026-05-07 06:18 | 1.54592 | 106.02658 | 33004 ft | 467 kts | 231° |
| 2026-05-07 06:18 | 1.52614 | 106.00079 | 32879 ft | 467 kts | 231° |
| 2026-05-07 06:18 | 1.50637 | 105.97500 | 32758 ft | 468 kts | 231° |
| 2026-05-07 06:19 | 1.48653 | 105.94914 | 32634 ft | 469 kts | 231° |
| 2026-05-07 06:19 | 1.46668 | 105.92327 | 32515 ft | 469 kts | 231° |
| 2026-05-07 06:19 | 1.44707 | 105.89769 | 32392 ft | 470 kts | 231° |
| 2026-05-07 06:19 | 1.42722 | 105.87182 | 32274 ft | 470 kts | 231° |
| 2026-05-07 06:20 | 1.40734 | 105.84590 | 32151 ft | 469 kts | 231° |
| 2026-05-07 06:20 | 1.38754 | 105.82009 | 32031 ft | 468 kts | 231° |
| 2026-05-07 06:20 | 1.36773 | 105.79426 | 31920 ft | 467 kts | 231° |
| 2026-05-07 06:20 | 1.34804 | 105.76855 | 31788 ft | 466 kts | 231° |
| 2026-05-07 06:21 | 1.32836 | 105.74284 | 31672 ft | 465 kts | 231° |
| 2026-05-07 06:21 | 1.30873 | 105.71719 | 31567 ft | 464 kts | 231° |
| 2026-05-07 06:21 | 1.28936 | 105.69187 | 31439 ft | 463 kts | 231° |
| 2026-05-07 06:21 | 1.26982 | 105.66633 | 31324 ft | 463 kts | 231° |
| 2026-05-07 06:22 | 1.25030 | 105.64083 | 31204 ft | 462 kts | 231° |
| 2026-05-07 06:22 | 1.21158 | 105.58995 | 30969 ft | 458 kts | 234° |
| 2026-05-07 06:22 | 1.19631 | 105.56215 | 30849 ft | 457 kts | 250° |
| 2026-05-07 06:23 | 1.18929 | 105.53137 | 30736 ft | 455 kts | 265° |
| 2026-05-07 06:23 | 1.18760 | 105.49976 | 30625 ft | 455 kts | 269° |
| 2026-05-07 06:23 | 1.18697 | 105.46812 | 30511 ft | 456 kts | 269° |
| 2026-05-07 06:23 | 1.18641 | 105.43643 | 30398 ft | 455 kts | 269° |
| 2026-05-07 06:24 | 1.18578 | 105.40527 | 30289 ft | 455 kts | 269° |
| 2026-05-07 06:24 | 1.18508 | 105.37373 | 30177 ft | 454 kts | 269° |
| 2026-05-07 06:24 | 1.18356 | 105.31080 | 29952 ft | 452 kts | 269° |
| 2026-05-07 06:25 | 1.18277 | 105.27942 | 29829 ft | 451 kts | 268° |
| 2026-05-07 06:25 | 1.18198 | 105.24812 | 29696 ft | 450 kts | 268° |
| 2026-05-07 06:25 | 1.18119 | 105.21698 | 29564 ft | 448 kts | 268° |
| 2026-05-07 06:25 | 1.18040 | 105.18589 | 29432 ft | 447 kts | 268° |
| 2026-05-07 06:26 | 1.17961 | 105.15524 | 29301 ft | 446 kts | 268° |
| 2026-05-07 06:26 | 1.17882 | 105.12432 | 29174 ft | 445 kts | 268° |
| 2026-05-07 06:26 | 1.17808 | 105.09335 | 29049 ft | 445 kts | 269° |
| 2026-05-07 06:26 | 1.17741 | 105.06255 | 28918 ft | 444 kts | 269° |
| 2026-05-07 06:27 | 1.17676 | 105.03177 | 28789 ft | 443 kts | 269° |
| 2026-05-07 06:27 | 1.17611 | 105.00104 | 28662 ft | 442 kts | 269° |
| 2026-05-07 06:27 | 1.17548 | 104.97114 | 28540 ft | 441 kts | 269° |
| 2026-05-07 06:27 | 1.17483 | 104.94051 | 28412 ft | 440 kts | 269° |
| 2026-05-07 06:28 | 1.17418 | 104.90997 | 28294 ft | 439 kts | 269° |
| 2026-05-07 06:28 | 1.17354 | 104.87988 | 28170 ft | 439 kts | 269° |
| 2026-05-07 06:28 | 1.17289 | 104.84929 | 27884 ft | 443 kts | 269° |
| 2026-05-07 06:28 | 1.17222 | 104.81827 | 27141 ft | 449 kts | 269° |
| 2026-05-07 06:29 | 1.17153 | 104.78693 | 26457 ft | 453 kts | 269° |
| 2026-05-07 06:29 | 1.17081 | 104.75547 | 25921 ft | 452 kts | 269° |
| 2026-05-07 06:29 | 1.17009 | 104.72418 | 25429 ft | 450 kts | 269° |
| 2026-05-07 06:29 | 1.16938 | 104.69297 | 24978 ft | 447 kts | 269° |
| 2026-05-07 06:30 | 1.16866 | 104.66197 | 24524 ft | 445 kts | 269° |
| 2026-05-07 06:30 | 1.16796 | 104.63124 | 24081 ft | 442 kts | 269° |
| 2026-05-07 06:30 | 1.16726 | 104.60096 | 23659 ft | 440 kts | 269° |
| 2026-05-07 06:30 | 1.16656 | 104.57052 | 23192 ft | 437 kts | 269° |
| 2026-05-07 06:31 | 1.16587 | 104.54051 | 22738 ft | 433 kts | 269° |
| 2026-05-07 06:31 | 1.16519 | 104.51057 | 22242 ft | 430 kts | 269° |
| 2026-05-07 06:31 | 1.16450 | 104.48079 | 21760 ft | 427 kts | 269° |
| 2026-05-07 06:31 | 1.16415 | 104.45180 | 21477 ft | 418 kts | 272° |
| 2026-05-07 06:32 | 1.16835 | 104.42344 | 21235 ft | 407 kts | 288° |
| 2026-05-07 06:32 | 1.18041 | 104.39840 | 20995 ft | 395 kts | 308° |
| 2026-05-07 06:32 | 1.19975 | 104.37980 | 20760 ft | 383 kts | 330° |
| 2026-05-07 06:32 | 1.22403 | 104.36982 | 20527 ft | 377 kts | 351° |
| 2026-05-07 06:33 | 1.24964 | 104.36860 | 20299 ft | 374 kts | 9° |
| 2026-05-07 06:33 | 1.27448 | 104.37527 | 20059 ft | 366 kts | 27° |
| 2026-05-07 06:33 | 1.29456 | 104.38988 | 19831 ft | 354 kts | 50° |
| 2026-05-07 06:33 | 1.30647 | 104.41072 | 19610 ft | 343 kts | 75° |
| 2026-05-07 06:34 | 1.30878 | 104.43399 | 19381 ft | 334 kts | 96° |
| 2026-05-07 06:34 | 1.30351 | 104.45631 | 19161 ft | 328 kts | 107° |
| 2026-05-07 06:34 | 1.29775 | 104.47802 | 18938 ft | 320 kts | 102° |
| 2026-05-07 06:34 | 1.29286 | 104.49921 | 18719 ft | 313 kts | 102° |
| 2026-05-07 06:35 | 1.28824 | 104.52029 | 18496 ft | 309 kts | 101° |
| 2026-05-07 06:35 | 1.28373 | 104.54153 | 18284 ft | 322 kts | 103° |
| 2026-05-07 06:35 | 1.27882 | 104.56429 | 18058 ft | 348 kts | 99° |
| 2026-05-07 06:35 | 1.27355 | 104.58836 | 17781 ft | 357 kts | 110° |
| 2026-05-07 06:36 | 1.26047 | 104.60929 | 17527 ft | 358 kts | 134° |
| 2026-05-07 06:36 | 1.24000 | 104.62310 | 17280 ft | 358 kts | 158° |
| 2026-05-07 06:36 | 1.21573 | 104.62737 | 17031 ft | 354 kts | 182° |
| 2026-05-07 06:36 | 1.19257 | 104.62139 | 16787 ft | 348 kts | 207° |
| 2026-05-07 06:37 | 1.17427 | 104.60625 | 16551 ft | 341 kts | 233° |
| 2026-05-07 06:37 | 1.16462 | 104.58537 | 16324 ft | 334 kts | 257° |
| 2026-05-07 06:37 | 1.16381 | 104.58181 | 16283 ft | 332 kts | 259° |